createdAt,value
2023-04-27T00:02:48.002Z,3.55
2023-04-27T00:05:49.854Z,3.36
2023-04-27T00:08:51.608Z,3.29
2023-04-27T00:11:53.240Z,3.23
2023-04-27T00:14:54.888Z,3.23
2023-04-27T00:17:57.588Z,3.24
2023-04-27T00:20:59.549Z,3.22
2023-04-27T00:24:01.306Z,3.28
2023-04-27T00:27:03.300Z,3.20
2023-04-27T00:30:05.615Z,3.18
2023-04-27T00:33:07.406Z,3.23
2023-04-27T00:36:09.264Z,3.27
2023-04-27T00:39:11.224Z,3.18
2023-04-27T00:42:16.340Z,3.34
2023-04-27T00:45:18.019Z,3.19
2023-04-27T00:48:19.890Z,3.21
2023-04-27T00:51:21.615Z,3.27
2023-04-27T00:54:23.438Z,3.37
2023-04-27T00:57:25.184Z,3.47
2023-04-27T01:00:26.865Z,3.28
2023-04-27T01:03:28.718Z,3.42
2023-04-27T01:06:30.414Z,3.42
2023-04-27T01:09:32.082Z,3.57
2023-04-27T01:12:33.793Z,3.74
2023-04-27T01:15:35.735Z,3.83
2023-04-27T01:18:37.872Z,3.87
2023-04-27T01:21:39.535Z,3.98
2023-04-27T01:24:41.541Z,3.93
2023-04-27T01:27:43.927Z,4.01
2023-04-27T01:30:45.614Z,3.95
2023-04-27T01:33:47.250Z,3.85
2023-04-27T01:36:48.949Z,3.87
2023-04-27T01:39:50.765Z,4.04
2023-04-27T01:42:52.418Z,3.97
2023-04-27T01:45:54.520Z,3.89
2023-04-27T01:48:56.190Z,3.81
2023-04-27T01:51:57.835Z,3.79
2023-04-27T01:54:59.454Z,3.77
2023-04-27T01:58:01.102Z,3.79
2023-04-27T02:01:02.706Z,3.69
2023-04-27T02:04:04.638Z,3.67
2023-04-27T02:07:06.758Z,3.53
2023-04-27T02:10:08.937Z,3.47
2023-04-27T02:13:13.635Z,3.46
2023-04-27T02:16:15.557Z,3.46
2023-04-27T02:19:17.399Z,3.34
2023-04-27T02:22:19.081Z,3.28
2023-04-27T02:25:20.889Z,3.24
2023-04-27T02:28:22.478Z,3.17
2023-04-27T02:31:24.709Z,3.05
2023-04-27T02:34:26.312Z,2.97
2023-04-27T02:37:28.366Z,2.84
2023-04-27T02:40:29.996Z,2.81
2023-04-27T02:43:31.627Z,2.88
2023-04-27T02:46:33.352Z,2.73
2023-04-27T02:49:37.979Z,2.78
2023-04-27T02:52:39.812Z,2.63
2023-04-27T02:55:48.984Z,2.58
2023-04-27T02:58:50.655Z,2.50
2023-04-27T03:01:52.576Z,2.41
2023-04-27T03:04:55.318Z,2.38
2023-04-27T03:07:57.008Z,2.45
2023-04-27T03:10:58.672Z,2.50
2023-04-27T03:14:00.930Z,2.52
2023-04-27T03:17:03.326Z,2.57
2023-04-27T03:20:10.661Z,2.63
2023-04-27T03:23:12.590Z,2.69
2023-04-27T03:26:15.294Z,2.66
2023-04-27T03:29:22.384Z,2.72
2023-04-27T03:32:26.201Z,2.79
2023-04-27T03:35:29.483Z,2.75
2023-04-27T03:38:33.681Z,2.78
2023-04-27T03:41:48.705Z,2.74
2023-04-27T03:44:51.559Z,2.75
2023-04-27T03:48:00.092Z,2.77
2023-04-27T03:51:04.709Z,2.74
2023-04-27T03:54:41.222Z,2.81
2023-04-27T03:57:52.182Z,2.92
2023-04-27T04:00:59.395Z,2.90
2023-04-27T04:04:04.971Z,2.83
2023-04-27T04:07:18.178Z,2.96
2023-04-27T04:10:20.260Z,2.96
2023-04-27T04:13:21.985Z,2.99
2023-04-27T04:16:23.709Z,3.00
2023-04-27T04:19:25.976Z,2.99
2023-04-27T04:22:27.863Z,3.06
2023-04-27T04:25:29.672Z,2.97
2023-04-27T04:28:32.613Z,3.04
2023-04-27T04:31:35.092Z,3.03
2023-04-27T04:34:37.005Z,3.07
2023-04-27T04:37:38.999Z,3.11
2023-04-27T04:40:44.428Z,3.16
2023-04-27T04:43:49.558Z,3.16
2023-04-27T04:46:52.060Z,3.42
2023-04-27T04:49:54.043Z,3.50
2023-04-27T04:52:56.087Z,3.53
2023-04-27T04:55:58.375Z,3.66
2023-04-27T04:59:00.055Z,3.73
2023-04-27T05:02:01.769Z,3.78
2023-04-27T05:05:03.960Z,3.94
2023-04-27T05:08:06.234Z,4.28
2023-04-27T05:11:07.872Z,4.47
2023-04-27T05:14:09.533Z,4.63
2023-04-27T05:17:11.399Z,4.81
2023-04-27T05:20:13.438Z,5.00
2023-04-27T05:23:19.788Z,5.41
2023-04-27T05:26:21.788Z,5.73
2023-04-27T05:29:23.588Z,5.86
2023-04-27T05:32:25.865Z,6.12
2023-04-27T05:35:27.627Z,6.10
2023-04-27T05:38:29.370Z,6.36
2023-04-27T05:41:31.447Z,6.47
2023-04-27T05:44:33.203Z,6.76
2023-04-27T05:47:35.054Z,6.96
2023-04-27T05:50:36.914Z,7.25
2023-04-27T05:53:39.323Z,7.43
2023-04-27T05:56:41.274Z,7.77
2023-04-27T05:59:43.549Z,7.99
2023-04-27T06:02:45.350Z,8.25
2023-04-27T06:05:47.204Z,8.35
2023-04-27T06:08:48.812Z,8.70
2023-04-27T06:11:50.731Z,9.17
2023-04-27T06:14:52.530Z,9.43
2023-04-27T06:17:54.186Z,9.78
2023-04-27T06:21:01.658Z,9.70
2023-04-27T06:24:03.697Z,9.80
2023-04-27T06:27:06.080Z,10.16
2023-04-27T06:30:08.203Z,10.71
2023-04-27T06:33:10.161Z,11.30
2023-04-27T06:36:11.900Z,11.61
2023-04-27T06:39:14.001Z,11.57
2023-04-27T06:42:16.064Z,11.70
2023-04-27T06:45:17.783Z,11.65
2023-04-27T06:48:19.569Z,11.44
2023-04-27T06:51:21.250Z,11.82
2023-04-27T06:54:23.165Z,11.81
2023-04-27T06:57:24.872Z,11.96
2023-04-27T07:00:27.314Z,12.25
2023-04-27T07:03:29.159Z,12.60
2023-04-27T07:06:31.844Z,12.51
2023-04-27T07:09:33.738Z,11.87
2023-04-27T07:12:35.925Z,12.05
2023-04-27T07:15:37.535Z,11.93
2023-04-27T07:18:39.261Z,12.20
2023-04-27T07:21:41.310Z,12.52
2023-04-27T07:24:42.973Z,13.49
2023-04-27T07:27:45.313Z,15.41
2023-04-27T07:30:47.155Z,17.34
2023-04-27T07:33:48.818Z,20.33
2023-04-27T07:36:54.193Z,21.07
2023-04-27T07:39:56.016Z,23.42
2023-04-27T07:42:58.412Z,24.04
2023-04-27T07:46:00.248Z,24.86
2023-04-27T07:49:02.539Z,23.50
2023-04-27T07:52:04.849Z,25.02
2023-04-27T07:55:07.099Z,26.54
2023-04-27T07:58:08.762Z,27.76
2023-04-27T08:01:10.625Z,26.51
2023-04-27T08:04:13.172Z,28.22
2023-04-27T08:07:16.517Z,26.46
2023-04-27T08:10:18.279Z,25.67
2023-04-27T08:13:19.881Z,24.14
2023-04-27T08:16:21.586Z,29.08
2023-04-27T08:19:23.234Z,25.93
2023-04-27T08:22:24.869Z,27.92
2023-04-27T08:25:26.994Z,27.87
2023-04-27T08:28:28.579Z,27.11
2023-04-27T08:31:30.281Z,29.66
2023-04-27T08:34:32.148Z,29.82
2023-04-27T08:37:33.867Z,28.31
2023-04-27T08:40:35.567Z,25.24
2023-04-27T08:43:37.227Z,24.70
2023-04-27T08:46:39.618Z,25.12
2023-04-27T08:49:44.413Z,21.70
2023-04-27T08:52:49.144Z,20.46
2023-04-27T08:55:51.466Z,19.62
2023-04-27T08:58:53.126Z,20.57
2023-04-27T09:01:54.798Z,25.06
2023-04-27T09:04:57.005Z,28.16
2023-04-27T09:08:05.768Z,27.15
2023-04-27T09:11:07.598Z,26.87
2023-04-27T09:14:18.048Z,24.92
2023-04-27T09:17:25.073Z,20.53
2023-04-27T09:20:27.349Z,16.63
2023-04-27T09:23:31.462Z,16.33
2023-04-27T09:26:33.084Z,14.87
2023-04-27T09:29:38.885Z,14.39
2023-04-27T09:32:40.841Z,13.94
2023-04-27T09:35:45.600Z,12.96
2023-04-27T09:38:47.556Z,12.57
2023-04-27T09:41:49.502Z,12.51
2023-04-27T09:44:53.383Z,11.46
2023-04-27T09:47:55.104Z,12.24
2023-04-27T09:50:56.806Z,15.21
2023-04-27T09:54:03.066Z,15.88
2023-04-27T09:57:17.432Z,14.99
2023-04-27T10:00:22.018Z,15.62
2023-04-27T10:04:00.908Z,16.21
2023-04-27T10:07:07.016Z,15.61
2023-04-27T10:10:17.877Z,15.26
2023-04-27T10:13:24.469Z,14.60
2023-04-27T10:16:26.204Z,14.73
2023-04-27T10:19:28.034Z,14.67
2023-04-27T10:22:40.849Z,14.00
2023-04-27T10:25:42.626Z,13.64
2023-04-27T10:28:45.549Z,13.41
2023-04-27T10:31:50.415Z,13.45
2023-04-27T10:35:02.313Z,13.28
2023-04-27T10:38:14.952Z,13.36
2023-04-27T10:41:16.684Z,14.07
2023-04-27T10:44:20.169Z,14.27
2023-04-27T10:47:22.195Z,14.90
2023-04-27T10:50:25.241Z,15.49
2023-04-27T10:53:27.182Z,15.56
2023-04-27T10:56:29.255Z,16.06
2023-04-27T10:59:31.305Z,15.97
2023-04-27T11:02:33.308Z,15.25
2023-04-27T11:05:36.194Z,15.52
2023-04-27T11:08:45.661Z,14.79
2023-04-27T11:11:47.790Z,14.51
2023-04-27T11:14:49.510Z,14.61
2023-04-27T11:17:52.021Z,14.61
2023-04-27T11:21:05.539Z,14.56
2023-04-27T11:24:08.296Z,14.97
2023-04-27T11:27:09.932Z,15.40
2023-04-27T11:30:22.539Z,15.44
2023-04-27T11:33:24.250Z,15.30
2023-04-27T11:36:27.253Z,15.29
2023-04-27T11:39:33.122Z,15.12
2023-04-27T11:42:34.949Z,15.43
2023-04-27T11:45:37.070Z,15.34
2023-04-27T11:48:39.544Z,15.21
2023-04-27T11:51:41.593Z,15.60
2023-04-27T11:54:56.581Z,15.60
2023-04-27T11:58:01.594Z,15.69
2023-04-27T12:01:07.741Z,15.70
2023-04-27T12:04:09.706Z,16.39
2023-04-27T12:07:12.326Z,17.64
2023-04-27T12:10:14.420Z,17.53
2023-04-27T12:13:16.245Z,17.55
2023-04-27T12:16:18.286Z,18.06
2023-04-27T12:19:19.942Z,18.61
2023-04-27T12:22:21.701Z,18.04
2023-04-27T12:25:23.356Z,16.69
2023-04-27T12:28:25.110Z,16.94
2023-04-27T12:31:27.837Z,16.55
2023-04-27T12:34:29.641Z,17.17
2023-04-27T12:37:31.429Z,20.78
2023-04-27T12:40:33.497Z,19.88
2023-04-27T12:43:38.368Z,18.44
2023-04-27T12:46:41.112Z,20.64
2023-04-27T12:49:42.975Z,19.15
2023-04-27T12:52:44.705Z,19.31
2023-04-27T12:55:47.228Z,18.12
2023-04-27T12:58:49.005Z,17.05
2023-04-27T13:01:50.915Z,16.25
2023-04-27T13:04:53.066Z,16.75
2023-04-27T13:07:54.820Z,16.10
2023-04-27T13:10:57.221Z,15.12
2023-04-27T13:13:59.423Z,15.69
2023-04-27T13:17:02.173Z,18.44
2023-04-27T13:20:04.030Z,24.94
2023-04-27T13:23:06.709Z,27.25
2023-04-27T13:26:08.672Z,25.23
2023-04-27T13:29:10.466Z,25.39
2023-04-27T13:32:12.107Z,27.85
2023-04-27T13:35:14.367Z,29.39
2023-04-27T13:38:16.084Z,27.82
2023-04-27T13:41:17.717Z,25.76
2023-04-27T13:44:20.358Z,26.43
2023-04-27T13:47:22.112Z,26.42
2023-04-27T13:50:23.738Z,23.97
2023-04-27T13:53:26.001Z,24.23
2023-04-27T13:56:27.722Z,22.13
2023-04-27T13:59:29.697Z,23.66
2023-04-27T14:02:32.126Z,25.69
2023-04-27T14:05:33.870Z,25.96
2023-04-27T14:08:35.477Z,23.96
2023-04-27T14:11:52.548Z,21.86
2023-04-27T14:14:58.556Z,20.29
2023-04-27T14:18:00.683Z,19.21
2023-04-27T14:21:02.654Z,19.58
2023-04-27T14:24:04.378Z,17.85
2023-04-27T14:27:06.156Z,17.40
2023-04-27T14:30:08.445Z,16.83
2023-04-27T14:33:10.169Z,16.81
2023-04-27T14:36:11.905Z,16.41
2023-04-27T14:39:13.855Z,16.54
2023-04-27T14:42:15.691Z,16.46
2023-04-27T14:45:18.280Z,16.74
2023-04-27T14:48:20.023Z,17.55
2023-04-27T14:51:21.790Z,17.64
2023-04-27T14:54:23.543Z,17.47
2023-04-27T14:57:25.176Z,16.62
2023-04-27T15:00:26.776Z,16.50
2023-04-27T15:03:28.929Z,16.69
2023-04-27T15:06:31.462Z,15.49
2023-04-27T15:09:34.120Z,15.05
2023-04-27T15:12:35.760Z,14.89
2023-04-27T15:15:37.543Z,14.70
2023-04-27T15:18:39.468Z,14.05
2023-04-27T15:21:41.194Z,14.05
2023-04-27T15:24:42.896Z,14.29
2023-04-27T15:27:44.601Z,14.13
2023-04-27T15:30:46.687Z,14.12
2023-04-27T15:33:48.980Z,14.11
2023-04-27T15:36:54.183Z,14.40
2023-04-27T15:39:56.075Z,13.96
2023-04-27T15:42:57.719Z,13.98
2023-04-27T15:45:59.348Z,13.98
2023-04-27T15:49:01.149Z,13.91
2023-04-27T15:52:02.764Z,14.18
2023-04-27T15:55:04.840Z,14.51
2023-04-27T15:58:06.500Z,14.66
2023-04-27T16:01:08.352Z,14.94
2023-04-27T16:04:10.230Z,14.81
2023-04-27T16:07:11.954Z,14.73
2023-04-27T16:10:13.833Z,14.54
2023-04-27T16:13:15.585Z,14.54
2023-04-27T16:16:17.284Z,14.49
2023-04-27T16:19:19.089Z,14.32
2023-04-27T16:22:22.031Z,13.82
2023-04-27T16:25:23.641Z,13.86
2023-04-27T16:28:25.323Z,13.47
2023-04-27T16:31:26.993Z,13.85
2023-04-27T16:34:28.664Z,13.66
2023-04-27T16:37:30.365Z,13.80
2023-04-27T16:40:32.975Z,14.41
2023-04-27T16:43:34.816Z,14.34
2023-04-27T16:46:36.617Z,13.90
2023-04-27T16:49:38.468Z,13.91
2023-04-27T16:52:40.234Z,13.66
2023-04-27T16:55:41.955Z,13.11
2023-04-27T16:58:43.569Z,13.17
2023-04-27T17:01:45.332Z,13.12
2023-04-27T17:04:47.421Z,12.93
2023-04-27T17:07:49.152Z,12.93
2023-04-27T17:10:50.976Z,12.63
2023-04-27T17:13:52.684Z,12.34
2023-04-27T17:16:54.339Z,12.29
2023-04-27T17:19:56.093Z,12.09
2023-04-27T17:22:57.940Z,12.13
2023-04-27T17:25:59.983Z,12.18
2023-04-27T17:29:01.659Z,11.64
2023-04-27T17:32:04.701Z,11.57
2023-04-27T17:35:06.823Z,11.18
2023-04-27T17:38:08.541Z,11.08
2023-04-27T17:41:10.201Z,10.72
2023-04-27T17:44:12.779Z,10.22
2023-04-27T17:47:14.895Z,10.08
2023-04-27T17:50:16.516Z,10.10
2023-04-27T17:53:18.249Z,10.05
2023-04-27T17:56:20.139Z,9.87
2023-04-27T17:59:21.788Z,9.99
2023-04-27T18:02:23.854Z,9.90
2023-04-27T18:05:26.128Z,10.02
2023-04-27T18:08:28.126Z,9.74
2023-04-27T18:11:30.131Z,9.63
2023-04-27T18:14:31.763Z,9.19
2023-04-27T18:17:33.451Z,9.25
2023-04-27T18:20:37.864Z,8.96
2023-04-27T18:23:41.279Z,9.04
2023-04-27T18:26:42.929Z,8.88
2023-04-27T18:29:45.211Z,8.74
2023-04-27T18:32:47.078Z,8.40
2023-04-27T18:35:49.200Z,8.41
2023-04-27T18:38:51.026Z,8.37
2023-04-27T18:41:52.671Z,7.97
2023-04-27T18:45:00.474Z,8.10
2023-04-27T18:48:03.070Z,8.15
2023-04-27T18:51:04.861Z,8.18
2023-04-27T18:57:13.260Z,7.99
2023-04-27T19:00:15.940Z,8.07
2023-04-27T19:03:18.163Z,8.04
2023-04-27T19:06:21.049Z,7.88
2023-04-27T19:09:23.123Z,7.81
2023-04-27T19:12:24.961Z,7.77
2023-04-27T19:15:27.572Z,7.67
2023-04-27T19:18:29.633Z,7.70
2023-04-27T19:21:31.697Z,7.81
2023-04-27T19:24:33.519Z,7.30
2023-04-27T19:27:35.777Z,7.35
2023-04-27T19:30:38.342Z,7.40
2023-04-27T19:33:46.683Z,6.99
2023-04-27T19:37:02.930Z,7.32
2023-04-27T19:40:05.911Z,6.99
2023-04-27T19:43:09.676Z,7.26
2023-04-27T19:46:11.989Z,6.92
2023-04-27T19:49:13.887Z,6.91
2023-04-27T19:52:15.735Z,6.75
2023-04-27T19:55:17.521Z,6.82
2023-04-27T19:58:19.468Z,6.69
2023-04-27T20:01:22.031Z,6.66
2023-04-27T20:04:24.170Z,6.58
2023-04-27T20:07:26.347Z,6.48
2023-04-27T20:10:28.030Z,6.45
2023-04-27T20:13:29.700Z,6.28
2023-04-27T20:16:31.484Z,5.99
2023-04-27T20:19:33.991Z,5.86
2023-04-27T20:22:35.843Z,5.72
2023-04-27T20:25:37.462Z,5.47
2023-04-27T20:28:39.162Z,5.52
2023-04-27T20:31:41.451Z,5.50
2023-04-27T20:34:43.279Z,5.49
2023-04-27T20:37:44.892Z,5.29
2023-04-27T20:40:47.178Z,5.27
2023-04-27T20:43:48.781Z,5.20
2023-04-27T20:46:50.416Z,5.15
2023-04-27T20:49:53.461Z,4.93
2023-04-27T20:52:55.140Z,4.85
2023-04-27T20:55:57.172Z,4.96
2023-04-27T20:58:59.556Z,4.85
2023-04-27T21:02:01.296Z,5.09
2023-04-27T21:05:03.355Z,5.10
2023-04-27T21:08:05.086Z,5.02
2023-04-27T21:11:06.833Z,5.03
2023-04-27T21:14:08.475Z,4.99
2023-04-27T21:17:10.386Z,4.97
2023-04-27T21:20:12.437Z,4.98
2023-04-27T21:23:14.906Z,4.86
2023-04-27T21:26:16.587Z,4.89
2023-04-27T21:29:18.179Z,4.92
2023-04-27T21:32:19.842Z,4.81
2023-04-27T21:35:21.540Z,4.88
2023-04-27T21:38:23.175Z,4.82
2023-04-27T21:41:24.933Z,4.76
2023-04-27T21:44:26.573Z,4.78
2023-04-27T21:47:28.286Z,4.62
2023-04-27T21:50:29.972Z,4.63
2023-04-27T21:53:31.590Z,4.67
2023-04-27T21:56:33.234Z,4.77
2023-04-27T21:59:34.910Z,4.96
2023-04-27T22:02:43.434Z,4.89
2023-04-27T22:05:45.534Z,4.82
2023-04-27T22:08:47.327Z,4.73
2023-04-27T22:14:50.616Z,4.46
2023-04-27T22:17:53.760Z,4.50
2023-04-27T22:20:55.542Z,4.69
2023-04-27T22:23:57.128Z,4.91
2023-04-27T22:26:58.888Z,4.86
2023-04-27T22:30:00.755Z,4.73
2023-04-27T22:33:03.233Z,4.89
2023-04-27T22:36:05.902Z,4.62
2023-04-27T22:39:08.249Z,4.85
2023-04-27T22:42:09.903Z,4.46
2023-04-27T22:45:11.986Z,4.48
2023-04-27T22:48:13.604Z,4.43
2023-04-27T22:51:15.246Z,4.24
2023-04-27T22:54:17.173Z,4.30
2023-04-27T22:57:18.985Z,4.22
2023-04-27T23:00:21.033Z,3.98
2023-04-27T23:03:22.803Z,4.20
2023-04-27T23:06:24.864Z,4.24
2023-04-27T23:09:27.094Z,3.97
2023-04-27T23:12:32.355Z,3.80
2023-04-27T23:15:33.989Z,3.83
2023-04-27T23:18:35.849Z,4.10
2023-04-27T23:21:37.494Z,4.03
2023-04-27T23:24:39.116Z,3.95
2023-04-27T23:27:40.781Z,3.98
2023-04-27T23:30:42.536Z,4.05
2023-04-27T23:33:44.218Z,3.98
2023-04-27T23:36:45.829Z,4.07
2023-04-27T23:39:47.477Z,3.94
2023-04-27T23:42:50.976Z,3.79
2023-04-27T23:45:53.470Z,3.87
2023-04-27T23:48:55.112Z,3.88
2023-04-27T23:51:56.771Z,3.81
2023-04-27T23:54:58.434Z,3.38
2023-04-27T23:58:00.344Z,3.36
